Time;durP1;ratioP1;P1;durP2;ratioP2;P2;SDS_P1;SDS_P2;PMS_P1;PMS_P2;Temp;Humidity;BMP_temperature;BMP_pressure;BME280_temperature;BME280_humidity;BME280_pressure;Samples;Min_cycle;Max_cycle;Signal;HPM_P1;HPM_P2
2023/03/16 00:02:00;;;;;;;18.75;11.65;;;;;;;-144.57;100.00;62443.72;5009742;28;20549;-61
2023/03/16 00:04:26;;;;;;;19.65;12.07;;;;;;;-144.57;100.00;62443.72;5010890;28;20045;-61
2023/03/16 00:06:52;;;;;;;18.83;12.35;;;;;;;-144.57;100.00;62443.72;5010858;28;20080;-61
2023/03/16 00:09:18;;;;;;;18.95;11.82;;;;;;;-144.57;100.00;62443.72;4993265;28;20044;-62
2023/03/16 00:11:43;;;;;;;17.98;11.77;;;;;;;-144.57;100.00;62443.72;5011783;28;20103;-62
2023/03/16 00:14:09;;;;;;;17.10;11.73;;;;;;;-144.57;100.00;62443.72;4997112;28;20145;-62
2023/03/16 00:16:34;;;;;;;22.45;12.25;;;;;;;-144.57;100.00;62443.72;5015093;28;20153;-61
2023/03/16 00:19:02;;;;;;;18.35;12.23;;;;;;;-144.57;100.00;62443.72;5013407;28;20045;-62
2023/03/16 00:21:30;;;;;;;21.52;12.95;;;;;;;-144.57;100.00;62443.72;5015029;28;20501;-62
2023/03/16 00:23:56;;;;;;;22.52;12.68;;;;;;;-144.57;100.00;62443.72;5014550;28;20141;-62
2023/03/16 00:26:21;;;;;;;22.63;12.23;;;;;;;-144.57;100.00;62443.72;5015025;28;20125;-62
2023/03/16 00:28:47;;;;;;;22.40;11.65;;;;;;;-144.57;100.00;62443.72;4997049;28;20096;-63
2023/03/16 00:31:13;;;;;;;22.58;13.23;;;;;;;-144.57;100.00;62443.72;5014777;28;20132;-62
2023/03/16 00:33:43;;;;;;;17.50;11.70;;;;;;;-144.57;100.00;62443.72;4996484;28;20088;-61
2023/03/16 00:36:10;;;;;;;20.92;12.07;;;;;;;-144.57;100.00;62443.72;5014668;28;20133;-62
2023/03/16 00:38:38;;;;;;;18.00;11.70;;;;;;;-144.57;100.00;62443.72;5013328;28;20077;-61
2023/03/16 00:41:06;;;;;;;18.20;11.60;;;;;;;-144.57;100.00;62443.72;5014581;28;20072;-61
2023/03/16 00:43:39;;;;;;;21.25;12.55;;;;;;;-144.57;100.00;62443.72;5013008;28;20069;-61
2023/03/16 00:46:13;;;;;;;17.10;11.32;;;;;;;-144.57;100.00;62443.72;4981070;28;20100;-62
2023/03/16 00:48:41;;;;;;;26.23;12.18;;;;;;;-144.57;100.00;62443.72;5013272;28;20045;-62
2023/03/16 00:51:11;;;;;;;19.95;12.93;;;;;;;-144.57;100.00;62443.72;5014340;28;20565;-62
2023/03/16 00:53:37;;;;;;;;;;;;;;;-144.57;100.00;62443.72;5013211;28;20522;-61
2023/03/16 00:56:04;;;;;;;16.05;11.35;;;;;;;-144.57;100.00;62443.72;4995003;28;20350;-60
2023/03/16 00:58:34;;;;;;;19.90;11.90;;;;;;;-144.57;100.00;62443.72;4992906;28;20189;-61
2023/03/16 01:01:04;;;;;;;;;;;;;;;-144.57;100.00;62443.72;4996881;28;20056;-60
2023/03/16 01:03:31;;;;;;;;;;;;;;;-144.57;100.00;62443.72;4996878;28;19979;-62
2023/03/16 01:05:58;;;;;;;21.45;12.38;;;;;;;-144.57;100.00;62443.72;4992945;28;20387;-61
2023/03/16 01:08:29;;;;;;;20.70;11.85;;;;;;;-144.57;100.00;62443.72;4994436;28;20043;-61
2023/03/16 01:10:54;;;;;;;19.47;12.27;;;;;;;-144.57;100.00;62443.72;4993090;28;20136;-60
2023/03/16 01:13:22;;;;;;;17.95;11.48;;;;;;;-144.57;100.00;62443.72;5002038;28;20092;-61
2023/03/16 01:15:52;;;;;;;20.55;12.02;;;;;;;-144.57;100.00;62443.72;4980249;28;20046;-62
2023/03/16 01:18:19;;;;;;;19.30;11.73;;;;;;;-144.57;100.00;62443.72;4996236;28;20180;-60
2023/03/16 01:20:49;;;;;;;17.20;12.77;;;;;;;-144.57;100.00;62443.72;5013911;28;20384;-60
2023/03/16 01:23:17;;;;;;;19.15;12.25;;;;;;;-144.57;100.00;62443.72;5013695;28;20057;-59
2023/03/16 01:25:43;;;;;;;18.45;11.80;;;;;;;-144.57;100.00;62443.72;4980027;28;20192;-61
2023/03/16 01:28:09;;;;;;;21.88;12.88;;;;;;;-144.57;100.00;62443.72;5013723;28;20137;-61
2023/03/16 01:30:34;;;;;;;16.60;11.35;;;;;;;-144.57;100.00;62443.72;4992884;28;20137;-60
2023/03/16 01:33:01;;;;;;;17.02;11.63;;;;;;;-144.57;100.00;62443.72;4992719;28;20077;-61
2023/03/16 01:35:27;;;;;;;19.13;12.00;;;;;;;-144.57;100.00;62443.72;4992938;28;20046;-61
2023/03/16 01:37:53;;;;;;;22.25;12.25;;;;;;;-144.57;100.00;62443.72;4976410;28;20038;-62
2023/03/16 01:40:23;;;;;;;19.03;12.23;;;;;;;-144.57;100.00;62443.72;4992865;28;20074;-61
2023/03/16 01:43:01;;;;;;;20.80;13.43;;;;;;;-144.57;100.00;62443.72;4993812;28;20073;-61
2023/03/16 01:46:01;;;;;;;18.45;12.13;;;;;;;-144.57;100.00;62443.72;4992601;28;20046;-60
2023/03/16 01:48:38;;;;;;;20.17;13.30;;;;;;;-144.57;100.00;62443.72;4976241;28;20054;-63
2023/03/16 01:51:25;;;;;;;21.33;13.60;;;;;;;-144.57;100.00;62443.72;4976168;28;20046;-62
2023/03/16 01:54:13;;;;;;;18.00;12.80;;;;;;;-144.57;100.00;62443.72;4992728;28;20141;-60
2023/03/16 01:56:57;;;;;;;18.80;13.48;;;;;;;-144.57;100.00;62443.72;4992615;28;20122;-60
2023/03/16 01:59:27;;;;;;;24.40;14.10;;;;;;;-144.57;100.00;62443.72;4993610;28;20069;-63
2023/03/16 02:01:54;;;;;;;26.15;15.23;;;;;;;-144.57;100.00;62443.72;4998403;28;20061;-61
2023/03/16 02:04:25;;;;;;;23.60;14.38;;;;;;;-144.57;100.00;62443.72;5031590;28;20110;-62
2023/03/16 02:06:56;;;;;;;25.95;14.18;;;;;;;-144.57;100.00;62443.72;4999331;28;20049;-62
2023/03/16 02:09:23;;;;;;;23.35;16.13;;;;;;;-144.57;100.00;62443.72;5014964;28;20092;-61
2023/03/16 02:11:50;;;;;;;26.40;15.30;;;;;;;-144.57;100.00;62443.72;5014807;28;20041;-61
2023/03/16 02:14:16;;;;;;;23.15;15.40;;;;;;;-144.57;100.00;62443.72;4998584;28;20488;-60
2023/03/16 02:16:43;;;;;;;23.83;15.82;;;;;;;-144.57;100.00;62443.72;5033032;28;20053;-61
2023/03/16 02:19:22;;;;;;;22.88;15.13;;;;;;;-144.57;100.00;62443.72;4998477;28;20140;-62
2023/03/16 02:22:05;;;;;;;22.73;15.55;;;;;;;-144.57;100.00;62443.72;4998628;28;20053;-62
2023/03/16 02:24:32;;;;;;;23.83;15.38;;;;;;;-144.57;100.00;62443.72;5014709;28;20068;-61
2023/03/16 02:27:03;;;;;;;28.13;17.23;;;;;;;-144.57;100.00;62443.72;5014966;28;20049;-60
2023/03/16 02:29:51;;;;;;;28.42;17.80;;;;;;;-144.57;100.00;62443.72;4999992;28;20046;-60
2023/03/16 02:32:19;;;;;;;26.08;17.52;;;;;;;-144.57;100.00;62443.72;4991661;28;20047;-61
2023/03/16 02:34:45;;;;;;;21.23;15.00;;;;;;;-144.57;100.00;62443.72;4991065;28;20099;-60
2023/03/16 02:37:12;;;;;;;20.38;15.23;;;;;;;-144.57;100.00;62443.72;4991524;28;20454;-62
2023/03/16 02:39:42;;;;;;;23.65;15.93;;;;;;;-144.57;100.00;62443.72;4991819;28;20435;-61
2023/03/16 02:42:14;;;;;;;27.20;16.05;;;;;;;-144.57;100.00;62443.72;4975360;28;20046;-61
2023/03/16 02:44:46;;;;;;;27.20;16.40;;;;;;;-144.57;100.00;62443.72;4974961;28;20392;-61
2023/03/16 02:47:36;;;;;;;24.63;16.27;;;;;;;-144.57;100.00;62443.72;4975260;28;20042;-60
2023/03/16 02:50:05;;;;;;;28.30;17.58;;;;;;;-144.57;100.00;62443.72;4984990;28;20062;-60
2023/03/16 02:52:33;;;;;;;28.73;15.88;;;;;;;-144.57;100.00;62443.72;4975299;28;20049;-59
2023/03/16 02:54:59;;;;;;;24.23;16.27;;;;;;;-144.57;100.00;62443.72;4998312;28;20527;-61
2023/03/16 02:57:25;;;;;;;29.02;16.15;;;;;;;-144.57;100.00;62443.72;4978326;28;20177;-60
2023/03/16 02:59:52;;;;;;;25.88;16.77;;;;;;;-144.57;100.00;62443.72;4990393;28;20197;-60
2023/03/16 03:02:18;;;;;;;22.42;15.52;;;;;;;-144.57;100.00;62443.72;5007622;28;20459;-61
2023/03/16 03:04:46;;;;;;;24.02;16.30;;;;;;;-144.57;100.00;62443.72;5007155;28;20049;-62
2023/03/16 03:07:13;;;;;;;27.27;16.70;;;;;;;-144.57;100.00;62443.72;4990323;28;20046;-60
2023/03/16 03:09:54;;;;;;;25.85;17.23;;;;;;;-144.57;100.00;62443.72;4992356;28;20117;-60
2023/03/16 03:12:21;;;;;;;30.17;15.52;;;;;;;-144.57;100.00;62443.72;4992291;28;20556;-60
2023/03/16 03:14:48;;;;;;;23.80;15.93;;;;;;;-144.57;100.00;62443.72;4973439;28;20039;-60
2023/03/16 03:17:16;;;;;;;25.02;15.43;;;;;;;-144.57;100.00;62443.72;4971190;28;20057;-61
2023/03/16 03:19:42;;;;;;;22.92;16.00;;;;;;;-144.57;100.00;62443.72;4971266;28;20229;-61
2023/03/16 03:22:08;;;;;;;22.10;15.40;;;;;;;-144.57;100.00;62443.72;4972457;28;20102;-65
2023/03/16 03:24:34;;;;;;;25.90;16.02;;;;;;;-144.57;100.00;62443.72;4971066;28;20098;-61
2023/03/16 03:27:04;;;;;;;25.02;16.45;;;;;;;-144.57;100.00;62443.72;4971414;28;20050;-62
2023/03/16 03:29:34;;;;;;;28.88;16.00;;;;;;;-144.57;100.00;62443.72;4972058;28;20070;-62
2023/03/16 03:32:01;;;;;;;26.70;16.55;;;;;;;-144.57;100.00;62443.72;4972483;28;20042;-61
2023/03/16 03:34:28;;;;;;;26.02;16.90;;;;;;;-144.57;100.00;62443.72;4970682;28;20047;-60
2023/03/16 03:36:54;;;;;;;29.23;15.70;;;;;;;-144.57;100.00;62443.72;4972801;28;20043;-61
2023/03/16 03:39:19;;;;;;;25.40;16.25;;;;;;;-144.57;100.00;62443.72;4939078;28;20415;-62
2023/03/16 03:41:48;;;;;;;26.45;15.32;;;;;;;-144.57;100.00;62443.72;4971514;28;20105;-61
2023/03/16 03:44:15;;;;;;;26.02;16.20;;;;;;;-144.57;100.00;62443.72;4971057;28;20047;-61
2023/03/16 03:46:41;;;;;;;34.03;16.65;;;;;;;-144.57;100.00;62443.72;4972976;28;20053;-61
2023/03/16 03:49:07;;;;;;;26.90;16.88;;;;;;;-144.57;100.00;62443.72;4959008;28;20508;-61
2023/03/16 03:51:34;;;;;;;26.02;15.27;;;;;;;-144.57;100.00;62443.72;4975551;28;20135;-61
2023/03/16 03:54:09;;;;;;;27.92;15.70;;;;;;;-144.57;100.00;62443.72;4975091;28;20101;-62
2023/03/16 03:56:46;;;;;;;27.63;16.70;;;;;;;-144.57;100.00;62443.72;4991573;28;20496;-61
2023/03/16 03:59:15;;;;;;;24.73;15.98;;;;;;;-144.57;100.00;62443.72;4986073;28;20058;-62
2023/03/16 04:02:09;;;;;;;29.30;16.00;;;;;;;-144.57;100.00;62443.72;4994501;28;20042;-61
2023/03/16 04:04:41;;;;;;;21.67;15.50;;;;;;;-144.57;100.00;62443.72;4994233;28;20038;-61
2023/03/16 04:07:09;;;;;;;28.85;16.42;;;;;;;-144.57;100.00;62443.72;4994112;28;20448;-61
2023/03/16 04:09:35;;;;;;;32.47;15.95;;;;;;;-144.57;100.00;62443.72;4995214;28;20172;-61
2023/03/16 04:12:03;;;;;;;25.52;15.30;;;;;;;-144.57;100.00;62443.72;4994130;28;20100;-61
2023/03/16 04:14:29;;;;;;;26.00;15.80;;;;;;;-144.57;100.00;62443.72;4993939;28;20124;-62
2023/03/16 04:16:55;;;;;;;27.45;16.85;;;;;;;-144.57;100.00;62443.72;4994241;28;20053;-62
2023/03/16 04:19:22;;;;;;;29.45;15.68;;;;;;;-144.57;100.00;62443.72;4994093;28;20046;-61
2023/03/16 04:21:50;;;;;;;29.08;15.77;;;;;;;-144.57;100.00;62443.72;4994200;28;20049;-61
2023/03/16 04:24:17;;;;;;;25.45;16.55;;;;;;;-144.57;100.00;62443.72;4993938;28;20050;-61
2023/03/16 04:26:44;;;;;;;24.55;16.10;;;;;;;-144.57;100.00;62443.72;4977815;28;20053;-61
2023/03/16 04:29:13;;;;;;;26.67;16.23;;;;;;;-144.57;100.00;62443.72;4993945;28;20053;-62
2023/03/16 04:31:41;;;;;;;26.20;16.40;;;;;;;-144.57;100.00;62443.72;5010496;28;20101;-61
2023/03/16 04:34:10;;;;;;;29.60;16.60;;;;;;;-144.57;100.00;62443.72;4977536;28;20447;-61
2023/03/16 04:36:37;;;;;;;27.75;15.88;;;;;;;-144.57;100.00;62443.72;4994124;28;20058;-62
2023/03/16 04:39:04;;;;;;;24.67;15.73;;;;;;;-144.57;100.00;62443.72;4994799;28;20046;-63
2023/03/16 04:41:31;;;;;;;39.65;18.05;;;;;;;-144.57;100.00;62443.72;5010016;28;20069;-62
2023/03/16 04:44:19;;;;;;;24.88;15.65;;;;;;;-144.57;100.00;62443.72;4994733;28;20058;-62
2023/03/16 04:46:45;;;;;;;26.77;16.20;;;;;;;-144.57;100.00;62443.72;4994583;28;20069;-63
2023/03/16 04:49:12;;;;;;;26.50;16.63;;;;;;;-144.57;100.00;62443.72;5009717;28;20046;-63
2023/03/16 04:51:41;;;;;;;30.70;19.48;;;;;;;-144.57;100.00;62443.72;4993361;28;20511;-63
2023/03/16 04:54:11;;;;;;;39.15;25.55;;;;;;;-144.57;100.00;62443.72;4993238;28;20054;-64
2023/03/16 04:56:40;;;;;;;40.00;24.65;;;;;;;-144.57;100.00;62443.72;4992838;28;20050;-64
2023/03/16 04:59:12;;;;;;;26.95;17.80;;;;;;;-144.57;100.00;62443.72;4977832;28;20516;-63
2023/03/16 05:01:52;;;;;;;28.60;16.48;;;;;;;-144.57;100.00;62443.72;4993552;28;20038;-63
2023/03/16 05:04:20;;;;;;;25.48;16.20;;;;;;;-144.57;100.00;62443.72;4993124;28;20565;-63
2023/03/16 05:06:47;;;;;;;23.25;14.63;;;;;;;-144.57;100.00;62443.72;5009773;28;20495;-64
2023/03/16 05:09:14;;;;;;;27.02;15.80;;;;;;;-144.57;100.00;62443.72;4993391;28;20087;-73
2023/03/16 05:11:40;;;;;;;26.10;15.32;;;;;;;-144.57;100.00;62443.72;4976548;28;20120;-63
2023/03/16 05:14:09;;;;;;;25.63;16.20;;;;;;;-144.57;100.00;62443.72;4992921;28;20046;-66
2023/03/16 05:16:46;;;;;;;23.10;15.55;;;;;;;-144.57;100.00;62443.72;4998400;28;20082;-65
2023/03/16 05:19:12;;;;;;;26.17;16.52;;;;;;;-144.57;100.00;62443.72;4987630;28;20624;-66
2023/03/16 05:21:37;;;;;;;27.17;16.20;;;;;;;-144.57;100.00;62443.72;4987711;28;20051;-63
2023/03/16 05:24:07;;;;;;;28.55;16.25;;;;;;;-144.57;100.00;62443.72;4972230;28;20095;-66
2023/03/16 05:26:33;;;;;;;27.05;16.13;;;;;;;-144.57;100.00;62443.72;4971918;28;20043;-65
2023/03/16 05:28:59;;;;;;;25.02;15.80;;;;;;;-144.57;100.00;62443.72;4988027;28;20053;-65
2023/03/16 05:31:31;;;;;;;27.52;15.52;;;;;;;-144.57;100.00;62443.72;4970698;28;20042;-66
2023/03/16 05:33:58;;;;;;;25.83;15.52;;;;;;;-144.57;100.00;62443.72;4987616;28;20051;-64
2023/03/16 05:36:24;;;;;;;25.67;16.05;;;;;;;-144.57;100.00;62443.72;4988080;28;20487;-65
2023/03/16 05:38:54;;;;;;;30.45;16.58;;;;;;;-144.57;100.00;62443.72;4988996;28;20145;-63
2023/03/16 05:41:34;;;;;;;25.85;15.32;;;;;;;-144.57;100.00;62443.72;4989477;28;20082;-65
2023/03/16 05:44:20;;;;;;;28.15;15.38;;;;;;;-144.57;100.00;62443.72;4973929;28;20113;-65
2023/03/16 05:47:06;;;;;;;25.27;15.80;;;;;;;-144.57;100.00;62443.72;4970435;28;20063;-65
2023/03/16 05:49:35;;;;;;;27.88;16.35;;;;;;;-144.57;100.00;62443.72;4989163;28;20051;-63
2023/03/16 05:52:05;;;;;;;30.80;16.08;;;;;;;-144.57;100.00;62443.72;4988869;28;20043;-64
2023/03/16 05:54:33;;;;;;;30.27;16.65;;;;;;;-144.57;100.00;62443.72;4988810;28;20464;-64
2023/03/16 05:56:59;;;;;;;28.48;17.02;;;;;;;-144.57;100.00;62443.72;4989256;28;20043;-66
2023/03/16 05:59:25;;;;;;;30.42;17.58;;;;;;;-144.57;100.00;62443.72;4988603;28;20090;-64
2023/03/16 06:01:54;;;;;;;26.33;16.25;;;;;;;-144.57;100.00;62443.72;4998817;28;20077;-64
2023/03/16 06:04:20;;;;;;;31.27;17.52;;;;;;;-144.57;100.00;62443.72;5008318;28;20415;-65
2023/03/16 06:06:47;;;;;;;29.35;17.30;;;;;;;-144.57;100.00;62443.72;5008584;28;20456;-64
2023/03/16 06:09:19;;;;;;;25.92;15.50;;;;;;;-144.57;100.00;62443.72;4991507;28;20419;-66
2023/03/16 06:11:45;;;;;;;29.95;17.10;;;;;;;-144.57;100.00;62443.72;5008189;28;20050;-67
2023/03/16 06:14:13;;;;;;;30.83;17.00;;;;;;;-144.57;100.00;62443.72;4987162;28;20053;-63
2023/03/16 06:16:40;;;;;;;29.73;16.63;;;;;;;-144.57;100.00;62443.72;5003689;28;20384;-64
2023/03/16 06:19:06;;;;;;;29.48;17.05;;;;;;;-144.57;100.00;62443.72;5004188;28;20104;-63
2023/03/16 06:21:32;;;;;;;28.25;17.83;;;;;;;-144.57;100.00;62443.72;4986772;28;20385;-63
2023/03/16 06:24:08;;;;;;;26.55;16.88;;;;;;;-144.57;100.00;62443.72;4992295;28;20050;-64
2023/03/16 06:26:35;;;;;;;27.95;16.98;;;;;;;-144.57;100.00;62443.72;5007359;28;20046;-65
2023/03/16 06:29:03;;;;;;;33.70;18.58;;;;;;;-144.57;100.00;62443.72;4990463;28;20034;-66
2023/03/16 06:31:32;;;;;;;35.15;18.83;;;;;;;-144.57;100.00;62443.72;4989006;28;20046;-62
2023/03/16 06:34:00;;;;;;;32.42;16.92;;;;;;;-144.57;100.00;62443.72;4989151;28;20518;-61
2023/03/16 06:36:26;;;;;;;31.40;17.40;;;;;;;-144.57;100.00;62443.72;4989153;28;20538;-65
2023/03/16 06:38:55;;;;;;;29.00;16.95;;;;;;;-144.57;100.00;62443.72;4988800;28;20577;-63
2023/03/16 06:41:29;;;;;;;32.63;18.02;;;;;;;-144.57;100.00;62443.72;4986831;28;20042;-62
2023/03/16 06:43:55;;;;;;;28.23;16.60;;;;;;;-144.57;100.00;62443.72;5003595;28;20423;-63
2023/03/16 06:46:20;;;;;;;31.60;17.60;;;;;;;-144.57;100.00;62443.72;4987938;28;20042;-64
2023/03/16 06:48:46;;;;;;;30.10;17.77;;;;;;;-144.57;100.00;62443.72;4988127;28;20038;-63
2023/03/16 06:51:12;;;;;;;32.20;17.98;;;;;;;-144.57;100.00;62443.72;4988694;28;20035;-64
2023/03/16 06:53:38;;;;;;;31.50;17.40;;;;;;;-144.57;100.00;62443.72;4971273;28;20042;-63
2023/03/16 06:56:05;;;;;;;30.88;18.05;;;;;;;-144.57;100.00;62443.72;4985994;28;20045;-61
2023/03/16 06:58:35;;;;;;;30.88;18.65;;;;;;;-144.57;100.00;62443.72;4985578;28;20051;-62
2023/03/16 07:01:02;;;;;;;32.50;18.60;;;;;;;-144.57;100.00;62443.72;5004636;28;20054;-62
2023/03/16 07:03:28;;;;;;;28.73;17.80;;;;;;;-144.57;100.00;62443.72;4989008;28;20101;-62
2023/03/16 07:05:58;;;;;;;;;;;;;;;-144.57;100.00;62443.72;4988467;28;20064;-62
2023/03/16 07:08:24;;;;;;;36.03;18.45;;;;;;;-144.57;100.00;62443.72;5005371;28;20375;-61
2023/03/16 07:10:51;;;;;;;32.67;18.83;;;;;;;-144.57;100.00;62443.72;4990941;28;20184;-62
2023/03/16 07:13:17;;;;;;;36.58;19.15;;;;;;;-144.57;100.00;62443.72;4988982;28;20463;-62
2023/03/16 07:15:43;;;;;;;31.73;18.50;;;;;;;-144.57;100.00;62443.72;4990233;28;20038;-63
2023/03/16 07:18:11;;;;;;;34.92;18.42;;;;;;;-144.57;100.00;62443.72;4998144;28;20038;-61
2023/03/16 07:20:37;;;;;;;32.05;18.13;;;;;;;-144.57;100.00;62443.72;4973561;28;20251;-61
2023/03/16 07:23:05;;;;;;;30.67;18.17;;;;;;;-144.57;100.00;62443.72;4990958;28;20054;-62
2023/03/16 07:25:31;;;;;;;26.60;17.45;;;;;;;-144.57;100.00;62443.72;4990768;28;20498;-62
2023/03/16 07:27:58;;;;;;;29.88;17.92;;;;;;;-144.57;100.00;62443.72;4989635;28;20038;-63
2023/03/16 07:30:29;;;;;;;31.83;17.80;;;;;;;-144.57;100.00;62443.72;4990396;28;20494;-62
2023/03/16 07:32:55;;;;;;;26.58;17.20;;;;;;;-144.57;100.00;62443.72;5005669;28;20125;-62
2023/03/16 07:35:23;;;;;;;29.58;18.45;;;;;;;-144.57;100.00;62443.72;4988434;28;20042;-62
2023/03/16 07:37:49;;;;;;;31.40;17.63;;;;;;;-144.57;100.00;62443.72;4988595;28;20053;-62
2023/03/16 07:40:15;;;;;;;32.80;17.58;;;;;;;-144.57;100.00;62443.72;4990168;28;20511;-63
2023/03/16 07:42:43;;;;;;;30.05;17.70;;;;;;;-144.57;100.00;62443.72;5006177;28;20042;-64
2023/03/16 07:45:13;;;;;;;28.27;16.27;;;;;;;-144.57;100.00;62443.72;4989776;28;20046;-62
2023/03/16 07:47:40;;;;;;;28.85;17.70;;;;;;;-144.57;100.00;62443.72;4990552;28;20074;-63
2023/03/16 07:50:18;;;;;;;32.55;18.38;;;;;;;-144.57;100.00;62443.72;4989744;28;20062;-63
2023/03/16 07:52:46;;;;;;;29.55;16.25;;;;;;;-144.57;100.00;62443.72;4990222;28;20185;-64
2023/03/16 07:55:13;;;;;;;33.47;17.85;;;;;;;-144.57;100.00;62443.72;4989223;28;20141;-64
2023/03/16 07:57:41;;;;;;;27.67;16.63;;;;;;;-144.57;100.00;62443.72;4974373;28;20050;-63
2023/03/16 08:00:09;;;;;;;27.33;16.98;;;;;;;-144.57;100.00;62443.72;4988084;28;20069;-65
2023/03/16 08:02:43;;;;;;;26.52;16.73;;;;;;;-144.57;100.00;62443.72;4940281;28;20043;-64
2023/03/16 08:05:12;;;;;;;29.42;18.33;;;;;;;-144.57;100.00;62443.72;4986316;28;20051;-63
2023/03/16 08:07:41;;;;;;;32.27;17.43;;;;;;;-144.57;100.00;62443.72;5004945;28;20563;-64
2023/03/16 08:10:13;;;;;;;29.17;17.20;;;;;;;-144.57;100.00;62443.72;4989495;28;20089;-63
2023/03/16 08:12:48;;;;;;;29.40;18.23;;;;;;;-144.57;100.00;62443.72;4989577;28;20054;-62
2023/03/16 08:15:14;;;;;;;30.92;17.75;;;;;;;-144.57;100.00;62443.72;4989693;28;20053;-64
2023/03/16 08:17:40;;;;;;;29.92;17.95;;;;;;;-144.57;100.00;62443.72;4958204;28;20035;-64
2023/03/16 08:20:13;;;;;;;28.55;17.27;;;;;;;-144.57;100.00;62443.72;4950287;28;20094;-61
2023/03/16 08:22:45;;;;;;;32.60;19.00;;;;;;;-144.57;100.00;62443.72;4984834;28;20526;-64
2023/03/16 08:25:12;;;;;;;35.47;19.75;;;;;;;-144.57;100.00;62443.72;4988758;28;20344;-65
2023/03/16 08:27:44;;;;;;;33.28;19.40;;;;;;;-144.57;100.00;62443.72;4989674;28;20097;-63
2023/03/16 08:30:12;;;;;;;34.45;18.42;;;;;;;-144.57;100.00;62443.72;4990511;28;20471;-62
2023/03/16 08:32:42;;;;;;;31.40;17.27;;;;;;;-144.57;100.00;62443.72;4990408;28;20046;-62
2023/03/16 08:35:12;;;;;;;31.23;17.95;;;;;;;-144.57;100.00;62443.72;4992121;28;20046;-63
2023/03/16 08:37:40;;;;;;;33.85;18.85;;;;;;;-144.57;100.00;62443.72;4992869;28;20138;-62
2023/03/16 08:40:09;;;;;;;30.83;19.17;;;;;;;-144.57;100.00;62443.72;4992291;28;20066;-62
2023/03/16 08:42:40;;;;;;;35.92;18.90;;;;;;;-144.57;100.00;62443.72;4992930;28;20157;-63
2023/03/16 08:45:09;;;;;;;34.45;19.08;;;;;;;-144.57;100.00;62443.72;4991835;28;20043;-64
2023/03/16 08:47:37;;;;;;;33.92;18.20;;;;;;;-144.57;100.00;62443.72;4975310;28;20051;-64
2023/03/16 08:50:05;;;;;;;30.27;18.48;;;;;;;-144.57;100.00;62443.72;4972860;28;20046;-64
2023/03/16 08:52:32;;;;;;;35.80;20.25;;;;;;;-144.57;100.00;62443.72;4981595;28;20038;-64
2023/03/16 08:54:58;;;;;;;35.83;19.65;;;;;;;-144.57;100.00;62443.72;4993870;28;20152;-62
2023/03/16 08:57:25;;;;;;;38.35;20.30;;;;;;;-144.57;100.00;62443.72;4993338;28;20622;-61
2023/03/16 08:59:50;;;;;;;36.72;19.40;;;;;;;-144.57;100.00;62443.72;5005232;28;20507;-62
2023/03/16 09:02:16;;;;;;;35.67;19.88;;;;;;;-144.57;100.00;62443.72;5012702;28;20046;-63
2023/03/16 09:04:42;;;;;;;35.17;19.77;;;;;;;-144.57;100.00;62443.72;5012907;28;20046;-63
2023/03/16 09:07:09;;;;;;;38.67;19.85;;;;;;;-144.57;100.00;62443.72;4995014;28;20044;-64
2023/03/16 09:09:34;;;;;;;36.60;19.83;;;;;;;-144.57;100.00;62443.72;4995286;28;20053;-63
2023/03/16 09:12:01;;;;;;;34.45;20.17;;;;;;;-144.57;100.00;62443.72;5013147;28;20050;-64
2023/03/16 09:14:27;;;;;;;39.35;22.15;;;;;;;-144.57;100.00;62443.72;4993970;28;20200;-63
2023/03/16 09:16:53;;;;;;;33.58;20.77;;;;;;;-144.57;100.00;62443.72;4995026;28;20038;-62
2023/03/16 09:19:20;;;;;;;40.65;22.10;;;;;;;-144.57;100.00;62443.72;4995160;28;20042;-69
2023/03/16 09:21:46;;;;;;;37.05;19.98;;;;;;;-144.57;100.00;62443.72;5011433;28;20465;-70
2023/03/16 09:24:13;;;;;;;37.03;21.23;;;;;;;-144.57;100.00;62443.72;4994864;28;20057;-68
2023/03/16 09:26:39;;;;;;;35.15;20.80;;;;;;;-144.57;100.00;62443.72;5012133;28;20557;-68
2023/03/16 09:29:05;;;;;;;36.78;21.25;;;;;;;-144.57;100.00;62443.72;4992685;28;20046;-69
2023/03/16 09:31:32;;;;;;;39.10;20.95;;;;;;;-144.57;100.00;62443.72;5008529;28;20054;-69
2023/03/16 09:33:58;;;;;;;39.08;21.05;;;;;;;-144.57;100.00;62443.72;4993083;28;20606;-63
2023/03/16 09:36:24;;;;;;;41.47;21.33;;;;;;;-144.57;100.00;62443.72;5010298;28;20503;-63
2023/03/16 09:38:50;;;;;;;35.78;19.98;;;;;;;-144.57;100.00;62443.72;5009340;28;20040;-64
2023/03/16 09:41:22;;;;;;;34.92;21.25;;;;;;;-144.57;100.00;62443.72;5010280;28;20426;-62
2023/03/16 09:44:04;;;;;;;43.03;22.10;;;;;;;-144.57;100.00;62443.72;5009635;28;20088;-66
2023/03/16 09:46:46;;;;;;;41.10;22.63;;;;;;;-144.57;100.00;62443.72;5006949;28;20054;-64
2023/03/16 09:49:16;;;;;;;43.47;25.25;;;;;;;-144.57;100.00;62443.72;4994887;28;20053;-65
2023/03/16 09:52:10;;;;;;;33.90;21.58;;;;;;;-144.57;100.00;62443.72;4993383;28;20050;-66
2023/03/16 09:54:38;;;;;;;37.63;22.20;;;;;;;-144.57;100.00;62443.72;5010133;28;20124;-65
2023/03/16 09:57:23;;;;;;;41.53;25.55;;;;;;;-144.57;100.00;62443.72;5012821;28;20038;-64
2023/03/16 09:59:49;;;;;;;41.83;23.95;;;;;;;-144.57;100.00;62443.72;4973299;28;20156;-66
2023/03/16 10:02:56;;;;;;;33.38;21.15;;;;;;;-144.57;100.00;62443.72;4992736;28;20130;-66
2023/03/16 10:05:23;;;;;;;34.20;21.20;;;;;;;-144.57;100.00;62443.72;4937705;28;20600;-66
2023/03/16 10:08:06;;;;;;;35.38;21.75;;;;;;;-144.57;100.00;62443.72;4991288;28;20427;-65
2023/03/16 10:10:42;;;;;;;32.88;19.40;;;;;;;-144.57;100.00;62443.72;4991387;28;20352;-63
2023/03/16 10:13:16;;;;;;;33.85;19.05;;;;;;;-144.57;100.00;62443.72;4989285;28;20081;-65
2023/03/16 10:15:42;;;;;;;29.15;18.58;;;;;;;-144.57;100.00;62443.72;4972288;28;20046;-64
2023/03/16 10:18:22;;;;;;;30.52;18.48;;;;;;;-144.57;100.00;62443.72;4982561;28;20507;-63
2023/03/16 10:20:49;;;;;;;35.20;20.30;;;;;;;-144.57;100.00;62443.72;4991525;28;20050;-65
2023/03/16 10:23:21;;;;;;;35.72;20.73;;;;;;;-144.57;100.00;62443.72;4989661;28;20112;-62
2023/03/16 10:25:49;;;;;;;40.88;21.73;;;;;;;-144.57;100.00;62443.72;4990396;28;20046;-63
2023/03/16 10:28:20;;;;;;;34.90;19.90;;;;;;;-144.57;100.00;62443.72;4992394;28;20042;-63
2023/03/16 10:30:48;;;;;;;30.65;19.15;;;;;;;-144.57;100.00;62443.72;4989065;28;20597;-65
2023/03/16 10:33:32;;;;;;;33.53;18.55;;;;;;;-144.57;100.00;62443.72;5005705;28;20043;-64
2023/03/16 10:36:28;;;;;;;34.70;19.15;;;;;;;-144.57;100.00;62443.72;4990076;28;20050;-65
2023/03/16 10:39:00;;;;;;;38.50;21.33;;;;;;;-144.57;100.00;62443.72;4978459;28;20065;-66
2023/03/16 10:41:29;;;;;;;34.47;19.40;;;;;;;-144.57;100.00;62443.72;4971325;28;20050;-65
2023/03/16 10:43:56;;;;;;;33.35;19.85;;;;;;;-144.57;100.00;62443.72;4954573;28;20038;-64
2023/03/16 10:46:26;;;;;;;41.25;20.60;;;;;;;-144.57;100.00;62443.72;4991119;28;20042;-66
2023/03/16 10:48:59;;;;;;;35.50;19.75;;;;;;;-144.57;100.00;62443.72;4989836;28;20052;-67
2023/03/16 10:51:28;;;;;;;31.77;20.20;;;;;;;-144.57;100.00;62443.72;4991176;28;20050;-66
2023/03/16 10:54:01;;;;;;;33.35;19.73;;;;;;;-144.57;100.00;62443.72;4956385;28;20048;-66
2023/03/16 10:56:32;;;;;;;37.33;20.52;;;;;;;-144.57;100.00;62443.72;4973668;28;20047;-65
2023/03/16 10:58:59;;;;;;;40.13;21.73;;;;;;;-144.57;100.00;62443.72;4970150;28;20042;-66
2023/03/16 11:01:26;;;;;;;37.70;21.08;;;;;;;-144.57;100.00;62443.72;5010301;28;20483;-67
2023/03/16 11:03:54;;;;;;;36.80;21.15;;;;;;;-144.57;100.00;62443.72;4991125;28;20045;-67
2023/03/16 11:06:29;;;;;;;35.38;20.38;;;;;;;-144.57;100.00;62443.72;4975240;28;20052;-66